createdAt,value
2018-09-14T00:01:13.983Z,1.50
2018-09-14T00:04:14.413Z,2.13
2018-09-14T00:07:15.317Z,2.00
2018-09-14T00:10:15.177Z,1.77
2018-09-14T00:13:14.567Z,1.77
2018-09-14T00:16:15.525Z,1.50
2018-09-14T00:19:14.873Z,2.00
2018-09-14T00:22:14.835Z,1.53
2018-09-14T00:25:14.899Z,2.00
2018-09-14T00:28:14.765Z,1.83
2018-09-14T00:31:14.411Z,1.60
2018-09-14T00:34:14.233Z,1.70
2018-09-14T00:37:14.035Z,1.37
2018-09-14T00:40:14.828Z,1.43
2018-09-14T00:43:15.104Z,1.30
2018-09-14T00:46:15.469Z,1.50
2018-09-14T00:49:15.429Z,1.47
2018-09-14T00:52:16.150Z,0.97
2018-09-14T00:55:16.221Z,1.30
2018-09-14T00:58:15.877Z,1.33
2018-09-14T01:01:15.524Z,0.87
2018-09-14T01:04:15.231Z,0.93
2018-09-14T01:07:14.160Z,1.23
2018-09-14T01:10:13.838Z,1.10
2018-09-14T01:13:14.128Z,1.27
2018-09-14T01:16:14.285Z,1.00
2018-09-14T01:19:14.327Z,0.90
2018-09-14T01:22:14.199Z,0.70
2018-09-14T01:25:13.093Z,1.30
2018-09-14T01:28:12.387Z,1.30
2018-09-14T01:31:12.588Z,0.63
2018-09-14T01:34:14.853Z,1.30
2018-09-14T01:37:14.380Z,0.80
2018-09-14T01:40:13.919Z,1.00
2018-09-14T01:43:13.893Z,0.73
2018-09-14T01:46:14.139Z,1.10
2018-09-14T01:49:17.157Z,1.03
2018-09-14T01:52:17.973Z,0.80
2018-09-14T01:55:18.398Z,0.90
2018-09-14T01:58:19.765Z,0.70
2018-09-14T02:01:19.416Z,0.67
2018-09-14T02:04:20.949Z,0.70
2018-09-14T02:07:20.189Z,0.87
2018-09-14T02:10:24.612Z,0.67
2018-09-14T02:13:24.288Z,0.97
2018-09-14T02:16:24.695Z,0.63
2018-09-14T02:19:23.800Z,0.63
2018-09-14T02:22:24.291Z,0.77
2018-09-14T02:25:24.303Z,0.83
2018-09-14T02:28:24.217Z,0.70
2018-09-14T02:31:25.341Z,0.80
2018-09-14T02:37:29.447Z,0.70
2018-09-14T02:40:30.559Z,0.60
2018-09-14T02:43:29.701Z,0.50
2018-09-14T02:46:29.687Z,0.50
2018-09-14T02:49:29.007Z,0.57
2018-09-14T02:52:28.670Z,0.60
2018-09-14T02:55:28.185Z,0.57
2018-09-14T02:58:28.674Z,0.53
2018-09-14T03:01:29.167Z,0.50
2018-09-14T03:04:30.483Z,0.60
2018-09-14T03:07:31.607Z,0.83
2018-09-14T03:10:31.985Z,0.50
2018-09-14T03:13:32.579Z,0.60
2018-09-14T03:16:33.687Z,0.40
2018-09-14T03:19:32.623Z,0.50
2018-09-14T03:22:32.895Z,0.50
2018-09-14T03:25:34.730Z,0.50
2018-09-14T03:28:33.962Z,0.50
2018-09-14T03:31:33.613Z,0.70
2018-09-14T03:34:34.725Z,0.47
2018-09-14T03:37:34.937Z,0.60
2018-09-14T03:40:34.373Z,0.50
2018-09-14T03:43:34.099Z,0.53
2018-09-14T03:46:33.960Z,0.40
2018-09-14T03:49:33.520Z,0.50
2018-09-14T03:52:34.739Z,0.50
2018-09-14T03:55:35.638Z,0.50
2018-09-14T03:58:34.445Z,0.40
2018-09-14T04:01:35.142Z,0.50
2018-09-14T04:04:35.833Z,0.50
2018-09-14T04:07:35.921Z,0.47
2018-09-14T04:10:35.081Z,0.50
2018-09-14T04:13:33.963Z,0.40
2018-09-14T04:16:34.410Z,0.33
2018-09-14T04:19:35.140Z,0.30
2018-09-14T04:22:35.210Z,0.50
2018-09-14T04:25:34.862Z,0.40
2018-09-14T04:28:35.046Z,0.50
2018-09-14T04:31:35.239Z,0.33
2018-09-14T04:34:34.651Z,0.30
2018-09-14T04:37:34.646Z,0.50
2018-09-14T04:40:34.374Z,0.30
2018-09-14T04:43:33.822Z,0.30
2018-09-14T04:46:35.753Z,0.60
2018-09-14T04:49:35.218Z,0.40
2018-09-14T04:52:35.923Z,0.43
2018-09-14T04:55:35.987Z,0.33
2018-09-14T04:58:37.938Z,0.50
2018-09-14T05:01:37.158Z,0.40
2018-09-14T05:04:38.480Z,0.30
2018-09-14T05:07:39.655Z,0.40
2018-09-14T05:10:40.916Z,0.30
2018-09-14T05:13:41.406Z,0.50
2018-09-14T05:16:40.854Z,0.37
2018-09-14T05:19:40.610Z,0.40
2018-09-14T05:22:41.204Z,0.33
2018-09-14T05:25:41.630Z,0.47
2018-09-14T05:28:41.970Z,0.40
2018-09-14T05:31:41.144Z,0.30
2018-09-14T05:34:41.890Z,0.27
2018-09-14T05:37:41.748Z,0.60
2018-09-14T05:40:42.655Z,0.30
2018-09-14T05:43:42.176Z,0.30
2018-09-14T05:46:41.655Z,0.50
2018-09-14T05:49:42.464Z,0.70
2018-09-14T05:52:42.439Z,0.53
2018-09-14T05:55:42.180Z,0.63
2018-09-14T05:58:43.700Z,0.40
2018-09-14T06:01:43.722Z,0.50
2018-09-14T06:04:43.760Z,0.63
2018-09-14T06:07:44.316Z,0.60
2018-09-14T06:10:44.187Z,0.30
2018-09-14T06:13:44.003Z,0.33
2018-09-14T06:16:43.177Z,0.33
2018-09-14T06:19:42.721Z,0.43
2018-09-14T06:22:44.173Z,1.07
2018-09-14T06:25:43.495Z,0.30
2018-09-14T06:28:44.199Z,0.60
2018-09-14T06:31:45.521Z,0.60
2018-09-14T06:34:46.415Z,0.77
2018-09-14T06:37:46.869Z,0.40
2018-09-14T06:40:46.130Z,0.60
2018-09-14T06:43:47.179Z,0.50
2018-09-14T06:46:46.617Z,0.53
2018-09-14T06:49:46.551Z,0.43
2018-09-14T06:52:47.248Z,0.43
2018-09-14T06:55:47.868Z,0.40
2018-09-14T06:58:48.431Z,0.50
2018-09-14T07:01:47.663Z,0.40
2018-09-14T07:04:47.731Z,0.80
2018-09-14T07:07:48.008Z,0.80
2018-09-14T07:10:50.619Z,0.63
2018-09-14T07:13:49.755Z,0.57
2018-09-14T07:16:51.550Z,0.50
2018-09-14T07:19:52.023Z,0.53
2018-09-14T07:22:54.012Z,0.50
2018-09-14T07:25:53.846Z,0.60
2018-09-14T07:28:54.207Z,0.50
2018-09-14T07:31:55.518Z,0.63
2018-09-14T07:34:54.902Z,0.60
2018-09-14T07:37:55.979Z,0.50
2018-09-14T07:40:56.078Z,0.43
2018-09-14T07:43:55.684Z,0.50
2018-09-14T07:46:56.014Z,0.43
2018-09-14T07:49:56.921Z,0.67
2018-09-14T07:52:57.654Z,0.50
2018-09-14T07:55:56.850Z,0.97
2018-09-14T07:58:56.554Z,0.47
2018-09-14T08:01:56.258Z,0.60
2018-09-14T08:04:56.761Z,0.40
2018-09-14T08:07:57.752Z,0.43
2018-09-14T08:10:58.659Z,0.50
2018-09-14T08:13:58.905Z,0.50
2018-09-14T08:16:59.631Z,0.27
2018-09-14T08:19:59.251Z,0.40
2018-09-14T08:23:00.609Z,0.50
2018-09-14T08:26:01.095Z,0.70
2018-09-14T08:29:01.331Z,0.30
2018-09-14T08:32:02.257Z,0.33
2018-09-14T08:35:01.644Z,0.70
2018-09-14T08:38:02.001Z,0.40
2018-09-14T08:41:03.411Z,0.40
2018-09-14T08:44:03.902Z,0.53
2018-09-14T08:47:03.260Z,0.60
2018-09-14T08:50:05.621Z,0.30
2018-09-14T08:53:06.316Z,0.60
2018-09-14T08:56:07.754Z,0.57
2018-09-14T08:59:07.113Z,0.60
2018-09-14T09:02:08.518Z,0.50
2018-09-14T09:05:10.784Z,0.70
2018-09-14T09:08:11.689Z,1.33
2018-09-14T09:11:11.649Z,0.70
2018-09-14T09:14:12.449Z,0.60
2018-09-14T09:17:12.020Z,0.63
2018-09-14T09:20:13.319Z,0.60
2018-09-14T09:23:17.982Z,0.63
2018-09-14T09:26:19.410Z,0.60
2018-09-14T09:29:18.686Z,0.53
2018-09-14T09:32:18.613Z,0.60
2018-09-14T09:35:18.358Z,0.50
2018-09-14T09:38:18.009Z,0.57
2018-09-14T09:41:18.496Z,0.60
2018-09-14T09:44:20.033Z,0.60
2018-09-14T09:47:21.559Z,0.70
2018-09-14T09:50:23.100Z,0.60
2018-09-14T09:53:23.026Z,0.50
2018-09-14T09:56:24.214Z,0.87
2018-09-14T09:59:24.228Z,0.57
2018-09-14T10:02:28.602Z,0.50
2018-09-14T10:05:33.050Z,0.53
2018-09-14T10:08:33.232Z,0.40
2018-09-14T10:11:33.303Z,0.50
2018-09-14T10:14:33.896Z,0.40
2018-09-14T10:17:34.089Z,0.43
2018-09-14T10:20:33.533Z,0.73
2018-09-14T10:23:34.637Z,0.70
2018-09-14T10:26:35.354Z,0.40
2018-09-14T10:29:34.845Z,0.60
2018-09-14T10:32:36.835Z,0.43
2018-09-14T10:35:36.476Z,0.50
2018-09-14T10:38:36.527Z,0.47
2018-09-14T10:41:37.572Z,0.60
2018-09-14T10:44:38.453Z,0.60
2018-09-14T10:47:40.089Z,0.50
2018-09-14T10:50:41.489Z,0.60
2018-09-14T10:53:42.367Z,0.60
2018-09-14T10:56:43.003Z,0.70
2018-09-14T10:59:42.862Z,0.57
2018-09-14T11:02:42.930Z,0.50
2018-09-14T11:05:43.210Z,0.70
2018-09-14T11:08:42.445Z,0.60
2018-09-14T11:11:42.305Z,0.50
2018-09-14T11:14:44.093Z,0.40
2018-09-14T11:17:43.822Z,0.50
2018-09-14T11:20:44.296Z,0.50
2018-09-14T11:23:43.867Z,0.30
2018-09-14T11:26:43.975Z,0.63
2018-09-14T11:29:45.576Z,0.60
2018-09-14T11:32:45.297Z,0.63
2018-09-14T11:35:45.500Z,0.40
2018-09-14T11:38:44.365Z,0.70
2018-09-14T11:41:45.715Z,0.50
2018-09-14T11:44:45.079Z,0.47
2018-09-14T11:47:45.018Z,0.47
2018-09-14T11:50:44.463Z,0.30
2018-09-14T11:53:44.022Z,0.50
2018-09-14T11:56:45.043Z,0.50
2018-09-14T11:59:44.990Z,0.37
2018-09-14T12:02:44.846Z,0.50
2018-09-14T12:05:45.048Z,0.73
2018-09-14T12:08:44.787Z,0.23
2018-09-14T12:11:45.172Z,0.30
2018-09-14T12:14:45.051Z,0.30
2018-09-14T12:17:44.581Z,0.50
2018-09-14T12:20:44.945Z,0.30
2018-09-14T12:23:45.234Z,0.50
2018-09-14T12:26:46.336Z,0.47
2018-09-14T12:29:46.404Z,0.30
2018-09-14T12:32:46.898Z,0.30
2018-09-14T12:35:45.797Z,0.60
2018-09-14T12:38:46.012Z,0.37
2018-09-14T12:41:46.925Z,0.47
2018-09-14T12:44:47.801Z,0.30
2018-09-14T12:47:50.094Z,0.50
2018-09-14T12:50:51.441Z,0.37
2018-09-14T12:53:51.974Z,0.83
2018-09-14T12:56:52.140Z,0.57
2018-09-14T12:59:52.531Z,0.20
2018-09-14T13:02:52.164Z,0.40
2018-09-14T13:05:52.550Z,0.30
2018-09-14T13:08:52.861Z,0.70
2018-09-14T13:11:52.809Z,0.43
2018-09-14T13:14:53.782Z,0.20
2018-09-14T13:17:54.991Z,0.60
2018-09-14T13:20:54.861Z,0.40
2018-09-14T13:23:54.693Z,0.40
2018-09-14T13:26:54.000Z,0.20
2018-09-14T13:29:55.942Z,0.50
2018-09-14T13:32:59.050Z,0.33
2018-09-14T13:35:59.070Z,0.40
2018-09-14T13:38:58.658Z,0.40
2018-09-14T13:41:58.853Z,0.20
2018-09-14T13:44:58.176Z,0.63
2018-09-14T13:47:56.987Z,0.40
2018-09-14T13:50:56.897Z,0.33
2018-09-14T13:53:57.065Z,0.40
2018-09-14T13:56:57.401Z,0.30
2018-09-14T13:59:56.802Z,0.30
2018-09-14T14:02:55.537Z,0.30
2018-09-14T14:05:57.519Z,0.20
2018-09-14T14:08:58.305Z,0.30
2018-09-14T14:11:59.211Z,0.30
2018-09-14T14:14:59.189Z,0.37
2018-09-14T14:17:58.931Z,0.40
2018-09-14T14:20:58.603Z,0.60
2018-09-14T14:23:59.285Z,0.33
2018-09-14T14:26:59.141Z,0.53
2018-09-14T14:29:59.199Z,0.30
2018-09-14T14:32:58.754Z,0.27
2018-09-14T14:35:58.902Z,0.30
2018-09-14T14:39:07.369Z,0.20
2018-09-14T14:42:08.182Z,0.30
2018-09-14T14:45:08.748Z,0.50
2018-09-14T14:48:09.034Z,0.30
2018-09-14T14:51:08.266Z,0.30
2018-09-14T14:54:08.123Z,0.30
2018-09-14T14:57:07.356Z,0.30
2018-09-14T15:00:06.662Z,0.20
2018-09-14T15:03:07.077Z,0.30
2018-09-14T15:06:07.575Z,0.57
2018-09-14T15:09:07.217Z,0.40
2018-09-14T15:12:07.082Z,0.20
2018-09-14T15:15:07.206Z,0.20
2018-09-14T15:18:07.432Z,0.50
2018-09-14T15:21:08.954Z,0.20
2018-09-14T15:24:07.993Z,0.60
2018-09-14T15:27:09.103Z,0.40
2018-09-14T15:30:08.330Z,0.40
2018-09-14T15:33:08.811Z,0.10
2018-09-14T15:36:09.475Z,0.30
2018-09-14T15:39:09.966Z,0.30
2018-09-14T15:42:09.903Z,0.30
2018-09-14T15:45:09.889Z,0.20
2018-09-14T15:48:09.163Z,0.50
2018-09-14T15:51:09.376Z,0.13
2018-09-14T15:54:08.676Z,0.30
2018-09-14T15:57:07.907Z,0.43
2018-09-14T16:00:08.196Z,0.40
2018-09-14T16:03:07.173Z,0.60
2018-09-14T16:06:08.115Z,0.20
2018-09-14T16:09:08.602Z,0.40
2018-09-14T16:12:09.422Z,0.40
2018-09-14T16:15:09.171Z,0.40
2018-09-14T16:18:08.821Z,0.20
2018-09-14T16:21:09.226Z,0.40
2018-09-14T16:24:09.785Z,0.27
2018-09-14T16:27:09.857Z,0.30
2018-09-14T16:30:09.309Z,0.30
2018-09-14T16:33:09.784Z,0.20
2018-09-14T16:36:09.553Z,0.30
2018-09-14T16:39:09.086Z,0.20
2018-09-14T16:42:09.575Z,0.10
2018-09-14T16:45:11.743Z,0.40
2018-09-14T16:48:11.176Z,0.23
2018-09-14T16:51:10.826Z,0.20
2018-09-14T16:54:10.895Z,0.30
2018-09-14T16:57:10.928Z,0.20
2018-09-14T17:00:10.199Z,0.20
2018-09-14T17:03:09.018Z,0.40
2018-09-14T17:06:08.218Z,0.30
2018-09-14T17:09:07.635Z,0.30
2018-09-14T17:12:08.187Z,0.50
2018-09-14T17:15:08.050Z,0.50
2018-09-14T17:18:08.735Z,0.60
2018-09-14T17:21:10.049Z,0.60
2018-09-14T17:24:10.299Z,0.50
2018-09-14T17:27:10.628Z,0.40
2018-09-14T17:30:10.895Z,1.43
2018-09-14T17:33:10.964Z,0.90
2018-09-14T17:36:10.697Z,0.90
2018-09-14T17:39:10.788Z,0.83
2018-09-14T17:42:10.459Z,0.90
2018-09-14T17:45:10.003Z,0.70
2018-09-14T17:48:09.859Z,0.80
2018-09-14T17:51:10.544Z,0.70
2018-09-14T17:54:10.614Z,0.80
2018-09-14T17:57:10.056Z,1.67
2018-09-14T18:00:11.188Z,0.90
2018-09-14T18:03:10.239Z,1.00
2018-09-14T18:06:11.959Z,0.87
2018-09-14T18:09:11.177Z,0.80
2018-09-14T18:12:11.457Z,0.80
2018-09-14T18:15:11.102Z,0.90
2018-09-14T18:18:11.807Z,0.73
2018-09-14T18:21:10.822Z,0.97
2018-09-14T18:24:11.686Z,0.90
2018-09-14T18:27:12.845Z,0.93
2018-09-14T18:30:12.914Z,0.80
2018-09-14T18:33:12.574Z,0.90
2018-09-14T18:36:13.993Z,1.07
2018-09-14T18:39:14.895Z,0.90
2018-09-14T18:42:14.873Z,0.80
2018-09-14T18:45:13.733Z,1.10
2018-09-14T18:48:13.704Z,1.00
2018-09-14T18:51:13.187Z,0.93
2018-09-14T18:54:13.723Z,1.00
2018-09-14T18:57:14.175Z,1.00
2018-09-14T19:00:18.480Z,0.97
2018-09-14T19:03:18.494Z,1.53
2018-09-14T19:06:18.352Z,0.97
2018-09-14T19:09:19.879Z,1.50
2018-09-14T19:12:19.391Z,1.17
2018-09-14T19:15:19.370Z,1.17
2018-09-14T19:18:18.829Z,1.10
2018-09-14T19:21:19.011Z,0.80
2018-09-14T19:24:20.640Z,0.70
2018-09-14T19:27:20.508Z,0.57
2018-09-14T19:30:20.472Z,1.63
2018-09-14T19:33:20.429Z,1.20
2018-09-14T19:36:20.498Z,0.80
2018-09-14T19:39:21.646Z,0.80
2018-09-14T19:42:23.471Z,1.27
2018-09-14T19:45:24.617Z,1.30
2018-09-14T19:48:26.160Z,0.97
2018-09-14T19:51:27.822Z,0.77
2018-09-14T19:54:27.821Z,0.80
2018-09-14T19:57:27.098Z,0.87
2018-09-14T20:00:26.486Z,1.30
2018-09-14T20:03:25.836Z,1.00
2018-09-14T20:06:26.693Z,1.03
2018-09-14T20:09:26.485Z,0.77
2018-09-14T20:12:26.135Z,0.67
2018-09-14T20:15:26.108Z,1.10
2018-09-14T20:18:27.821Z,0.93
2018-09-14T20:21:27.808Z,0.97
2018-09-14T20:24:28.427Z,0.90
2018-09-14T20:27:28.794Z,0.90
2018-09-14T20:30:28.513Z,1.20
2018-09-14T20:33:28.300Z,0.93
2018-09-14T20:36:28.363Z,1.20
2018-09-14T20:39:27.805Z,1.00
2018-09-14T20:42:27.191Z,1.47
2018-09-14T20:45:28.584Z,0.90
2018-09-14T20:48:30.740Z,0.80
2018-09-14T20:51:30.846Z,0.60
2018-09-14T20:54:30.480Z,0.87
2018-09-14T20:57:30.520Z,0.80
2018-09-14T21:00:33.107Z,0.60
2018-09-14T21:03:34.428Z,0.70
2018-09-14T21:06:33.863Z,0.90
2018-09-14T21:09:33.306Z,0.73
2018-09-14T21:12:32.330Z,0.67
2018-09-14T21:15:31.148Z,1.10
2018-09-14T21:18:31.700Z,1.30
2018-09-14T21:21:32.140Z,1.90
2018-09-14T21:24:32.100Z,0.80
2018-09-14T21:27:34.558Z,0.63
2018-09-14T21:30:34.971Z,1.30
2018-09-14T21:33:34.301Z,0.63
2018-09-14T21:36:33.719Z,0.80
2018-09-14T21:39:31.707Z,0.70
2018-09-14T21:42:31.969Z,0.67
2018-09-14T21:45:31.377Z,0.93
2018-09-14T21:48:32.956Z,0.50
2018-09-14T21:51:33.658Z,0.77
2018-09-14T21:54:34.145Z,0.60
2018-09-14T21:57:34.418Z,0.80
2018-09-14T22:00:42.645Z,0.60
2018-09-14T22:03:42.912Z,0.37
2018-09-14T22:06:42.922Z,0.40
2018-09-14T22:09:45.364Z,1.13
2018-09-14T22:12:45.223Z,0.70
2018-09-14T22:15:45.495Z,0.60
2018-09-14T22:18:45.096Z,0.50
2018-09-14T22:21:45.846Z,0.63
2018-09-14T22:24:45.904Z,0.63
2018-09-14T22:27:45.483Z,0.50
2018-09-14T22:30:45.208Z,0.60
2018-09-14T22:33:44.662Z,0.60
2018-09-14T22:36:44.886Z,0.40
2018-09-14T22:39:44.580Z,0.70
2018-09-14T22:42:44.450Z,1.20
2018-09-14T22:45:44.092Z,0.70
2018-09-14T22:48:44.380Z,0.67
2018-09-14T22:51:44.391Z,0.77
2018-09-14T22:54:43.677Z,0.77
2018-09-14T22:57:43.744Z,0.90
2018-09-14T23:00:48.422Z,0.60
2018-09-14T23:03:47.966Z,0.70
2018-09-14T23:06:47.296Z,1.13
2018-09-14T23:09:47.720Z,0.80
2018-09-14T23:12:48.895Z,0.60
2018-09-14T23:15:52.306Z,0.77
2018-09-14T23:18:53.214Z,0.40
2018-09-14T23:21:52.997Z,0.50
2018-09-14T23:24:52.931Z,0.50
2018-09-14T23:27:52.376Z,0.93
2018-09-14T23:30:55.800Z,0.80
2018-09-14T23:33:55.786Z,0.50
2018-09-14T23:36:55.459Z,0.50
2018-09-14T23:39:56.003Z,1.00
2018-09-14T23:42:56.293Z,0.80
2018-09-14T23:45:56.760Z,0.80
2018-09-14T23:48:57.565Z,0.60
2018-09-14T23:51:58.782Z,0.63
2018-09-14T23:55:00.533Z,0.67
2018-09-14T23:57:59.552Z,0.90
